createdAt,value
2023-05-10T00:00:30.217Z,100583.00
2023-05-10T00:02:57.694Z,100586.69
2023-05-10T00:05:24.663Z,100591.19
2023-05-10T00:07:52.932Z,100592.78
2023-05-10T00:10:19.912Z,100595.44
2023-05-10T00:12:46.998Z,100595.00
2023-05-10T00:15:13.933Z,100592.38
2023-05-10T00:17:41.139Z,100591.38
2023-05-10T00:20:08.892Z,100596.78
2023-05-10T00:22:35.999Z,100600.03
2023-05-10T00:25:05.242Z,100597.94
2023-05-10T00:27:32.106Z,100596.44
2023-05-10T00:29:59.030Z,100609.38
2023-05-10T00:32:25.836Z,100603.94
2023-05-10T00:34:53.186Z,100599.69
2023-05-10T00:37:20.064Z,100603.06
2023-05-10T00:39:47.016Z,100601.47
2023-05-10T00:42:15.795Z,100602.41
2023-05-10T00:44:42.957Z,100598.25
2023-05-10T00:47:10.326Z,100611.28
2023-05-10T00:49:37.728Z,100607.94
2023-05-10T00:52:05.217Z,100601.53
2023-05-10T00:54:32.245Z,100601.38
2023-05-10T00:56:59.814Z,100608.34
2023-05-10T00:59:28.219Z,100603.16
2023-05-10T01:01:55.479Z,100602.81
2023-05-10T01:04:26.775Z,100603.97
2023-05-10T01:06:54.757Z,100608.41
2023-05-10T01:09:22.620Z,100612.19
2023-05-10T01:11:50.952Z,100614.69
2023-05-10T01:14:20.974Z,100619.47
2023-05-10T01:16:50.990Z,100626.47
2023-05-10T01:19:20.986Z,100626.16
2023-05-10T01:21:56.202Z,100618.97
2023-05-10T01:24:55.544Z,100628.63
2023-05-10T01:27:48.548Z,100626.38
2023-05-10T01:30:47.385Z,100636.06
2023-05-10T01:33:19.189Z,100638.44
2023-05-10T01:35:52.917Z,100638.59
2023-05-10T01:38:28.562Z,100638.44
2023-05-10T01:41:06.725Z,100639.13
2023-05-10T01:43:43.839Z,100632.97
2023-05-10T01:46:15.708Z,100640.16
2023-05-10T01:48:51.977Z,100633.44
2023-05-10T01:51:37.402Z,100634.72
2023-05-10T01:54:07.037Z,100640.72
2023-05-10T01:56:36.565Z,100637.94
2023-05-10T01:59:09.755Z,100642.84
2023-05-10T02:01:39.815Z,100648.03
2023-05-10T02:04:10.128Z,100646.56
2023-05-10T02:06:39.374Z,100644.81
2023-05-10T02:09:07.699Z,100652.59
2023-05-10T02:11:34.810Z,100660.00
2023-05-10T02:14:02.371Z,100663.78
2023-05-10T02:16:32.080Z,100661.34
2023-05-10T02:19:02.244Z,100669.16
2023-05-10T02:21:31.940Z,100664.28
2023-05-10T02:24:00.285Z,100671.16
2023-05-10T02:26:27.919Z,100681.25
2023-05-10T02:28:57.402Z,100678.19
2023-05-10T02:31:24.587Z,100685.78
2023-05-10T02:33:52.628Z,100678.94
2023-05-10T02:36:22.496Z,100684.53
2023-05-10T02:38:53.036Z,100681.00
2023-05-10T02:41:22.469Z,100680.47
2023-05-10T02:43:51.922Z,100689.66
2023-05-10T02:46:19.377Z,100688.13
2023-05-10T02:48:46.635Z,100693.75
2023-05-10T02:51:18.766Z,100687.19
2023-05-10T02:53:49.277Z,100691.28
2023-05-10T02:56:26.959Z,100693.97
2023-05-10T02:58:53.906Z,100695.97
2023-05-10T03:01:20.861Z,100696.00
2023-05-10T03:03:47.687Z,100697.56
2023-05-10T03:06:14.772Z,100694.41
2023-05-10T03:08:41.641Z,100701.13
2023-05-10T03:11:25.343Z,100700.66
2023-05-10T03:14:03.797Z,100695.88
2023-05-10T03:16:36.803Z,100689.66
2023-05-10T03:19:10.938Z,100693.53
2023-05-10T03:21:41.953Z,100687.50
2023-05-10T03:24:12.964Z,100700.22
2023-05-10T03:26:43.974Z,100701.16
2023-05-10T03:29:11.500Z,100700.50
2023-05-10T03:31:39.515Z,100708.50
2023-05-10T03:34:07.269Z,100705.03
2023-05-10T03:36:34.412Z,100713.09
2023-05-10T03:39:01.516Z,100701.19
2023-05-10T03:41:28.362Z,100708.09
2023-05-10T03:43:56.663Z,100707.16
2023-05-10T03:46:23.584Z,100703.31
2023-05-10T03:48:50.486Z,100703.75
2023-05-10T03:51:17.319Z,100706.00
2023-05-10T03:53:44.211Z,100702.59
2023-05-10T03:56:11.315Z,100700.16
2023-05-10T03:58:38.217Z,100703.06
2023-05-10T04:01:06.480Z,100699.19
2023-05-10T04:03:33.404Z,100704.50
2023-05-10T04:06:01.589Z,100699.47
2023-05-10T04:08:28.590Z,100702.38
2023-05-10T04:10:55.556Z,100712.94
2023-05-10T04:13:23.884Z,100703.09
2023-05-10T04:15:50.911Z,100707.31
2023-05-10T04:18:19.177Z,100709.31
2023-05-10T04:20:46.020Z,100707.28
2023-05-10T04:23:12.866Z,100702.94
2023-05-10T04:25:39.705Z,100709.00
2023-05-10T04:28:06.587Z,100708.28
2023-05-10T04:30:35.225Z,100695.22
2023-05-10T04:33:02.954Z,100706.88
2023-05-10T04:35:31.481Z,100706.53
2023-05-10T04:37:58.473Z,100712.50
2023-05-10T04:40:25.386Z,100711.91
2023-05-10T04:42:52.524Z,100713.28
2023-05-10T04:45:19.607Z,100720.94
2023-05-10T04:47:46.467Z,100721.63
2023-05-10T04:50:13.340Z,100714.50
2023-05-10T04:52:41.537Z,100723.63
2023-05-10T04:55:10.579Z,100723.78
2023-05-10T04:57:37.452Z,100720.84
2023-05-10T05:00:05.370Z,100723.00
2023-05-10T05:02:32.338Z,100726.66
2023-05-10T05:04:59.243Z,100728.38
2023-05-10T05:07:26.455Z,100728.00
2023-05-10T05:09:54.801Z,100724.09
2023-05-10T05:12:21.643Z,100724.84
2023-05-10T05:14:48.526Z,100725.75
2023-05-10T05:17:15.365Z,100733.81
2023-05-10T05:19:42.165Z,100736.28
2023-05-10T05:22:09.734Z,100739.47
2023-05-10T05:24:38.738Z,100743.13
2023-05-10T05:27:07.207Z,100751.59
2023-05-10T05:29:34.114Z,100745.56
2023-05-10T05:32:01.303Z,100751.78
2023-05-10T05:34:28.245Z,100751.00
2023-05-10T05:36:55.227Z,100754.56
2023-05-10T05:39:22.163Z,100752.50
2023-05-10T05:41:49.009Z,100754.97
2023-05-10T05:44:17.217Z,100754.31
2023-05-10T05:46:44.101Z,100762.09
2023-05-10T05:49:11.131Z,100759.31
2023-05-10T05:51:38.012Z,100763.81
2023-05-10T05:54:05.464Z,100757.94
2023-05-10T05:56:32.301Z,100763.66
2023-05-10T05:58:59.172Z,100769.06
2023-05-10T06:01:27.399Z,100780.34
2023-05-10T06:03:54.346Z,100782.81
2023-05-10T06:06:21.233Z,100784.28
2023-05-10T06:08:48.084Z,100778.78
2023-05-10T06:11:14.860Z,100790.13
2023-05-10T06:13:41.739Z,100792.50
2023-05-10T06:16:08.716Z,100787.19
2023-05-10T06:18:37.314Z,100790.31
2023-05-10T06:21:04.295Z,100789.28
2023-05-10T06:23:31.105Z,100790.81
2023-05-10T06:25:57.972Z,100800.44
2023-05-10T06:28:25.057Z,100796.94
2023-05-10T06:30:51.801Z,100799.38
2023-05-10T06:33:18.627Z,100802.63
2023-05-10T06:35:46.967Z,100808.00
2023-05-10T06:38:13.850Z,100797.56
2023-05-10T06:40:42.673Z,100800.28
2023-05-10T06:43:09.510Z,100810.44
2023-05-10T06:45:36.520Z,100815.31
2023-05-10T06:48:03.778Z,100823.78
2023-05-10T06:50:30.821Z,100824.09
2023-05-10T06:52:59.052Z,100823.50
2023-05-10T06:55:26.175Z,100829.03
2023-05-10T06:57:53.151Z,100830.19
2023-05-10T07:00:21.157Z,100827.81
2023-05-10T07:02:48.742Z,100828.78
2023-05-10T07:05:16.472Z,100823.75
2023-05-10T07:07:43.885Z,100822.06
2023-05-10T07:10:12.481Z,100828.25
2023-05-10T07:12:39.628Z,100832.34
2023-05-10T07:15:07.887Z,100834.41
2023-05-10T07:17:34.876Z,100835.84
2023-05-10T07:20:01.866Z,100839.13
2023-05-10T07:22:28.838Z,100848.03
2023-05-10T07:24:55.956Z,100841.38
2023-05-10T07:27:24.222Z,100853.22
2023-05-10T07:29:51.569Z,100854.94
2023-05-10T07:32:18.424Z,100848.78
2023-05-10T07:34:45.371Z,100842.34
2023-05-10T07:37:12.548Z,100839.13
2023-05-10T07:39:39.473Z,100837.91
2023-05-10T07:42:06.720Z,100841.63
2023-05-10T07:44:34.918Z,100832.66
2023-05-10T07:47:01.765Z,100845.84
2023-05-10T07:49:28.714Z,100843.38
2023-05-10T07:51:55.595Z,100849.47
2023-05-10T07:54:22.622Z,100844.69
2023-05-10T07:56:49.550Z,100843.94
2023-05-10T07:59:18.046Z,100846.81
2023-05-10T08:01:46.325Z,100856.81
2023-05-10T08:04:13.291Z,100843.50
2023-05-10T08:06:40.803Z,100859.63
2023-05-10T08:09:07.785Z,100852.72
2023-05-10T08:11:35.226Z,100860.78
2023-05-10T08:14:02.586Z,100863.28
2023-05-10T08:16:30.057Z,100855.72
2023-05-10T08:18:58.519Z,100856.22
2023-05-10T08:21:25.566Z,100861.44
2023-05-10T08:23:52.442Z,100866.38
2023-05-10T08:26:19.466Z,100875.75
2023-05-10T08:28:46.296Z,100881.59
2023-05-10T08:31:13.368Z,100882.38
2023-05-10T08:33:42.082Z,100881.88
2023-05-10T08:36:10.870Z,100884.03
2023-05-10T08:38:39.105Z,100880.50
2023-05-10T08:41:07.344Z,100883.34
2023-05-10T08:43:36.847Z,100881.69
2023-05-10T08:46:06.558Z,100882.09
2023-05-10T08:48:35.620Z,100890.38
2023-05-10T08:51:04.848Z,100899.88
2023-05-10T08:53:34.571Z,100899.94
2023-05-10T08:56:03.345Z,100904.66
2023-05-10T08:58:30.614Z,100904.34
2023-05-10T09:00:59.082Z,100899.84
2023-05-10T09:03:26.038Z,100906.13
2023-05-10T09:05:53.317Z,100906.13
2023-05-10T09:08:21.394Z,100903.59
2023-05-10T09:10:49.927Z,100900.16
2023-05-10T09:13:20.534Z,100904.69
2023-05-10T09:15:48.239Z,100907.72
2023-05-10T09:18:15.187Z,100915.22
2023-05-10T09:20:42.369Z,100908.47
2023-05-10T09:23:09.326Z,100914.78
2023-05-10T09:25:36.657Z,100912.31
2023-05-10T09:28:08.408Z,100912.66
2023-05-10T09:30:36.020Z,100919.41
2023-05-10T09:33:03.501Z,100916.81
2023-05-10T09:35:32.471Z,100913.72
2023-05-10T09:38:01.722Z,100921.13
2023-05-10T09:40:30.724Z,100920.72
2023-05-10T09:42:58.611Z,100920.09
2023-05-10T09:45:28.645Z,100926.84
2023-05-10T09:47:56.115Z,100927.25
2023-05-10T09:50:23.882Z,100925.88
2023-05-10T09:52:52.340Z,100932.31
2023-05-10T09:55:21.601Z,100929.81
2023-05-10T09:57:49.211Z,100927.28
2023-05-10T10:00:20.452Z,100929.22
2023-05-10T10:02:55.292Z,100926.56
2023-05-10T10:05:22.264Z,100924.19
2023-05-10T10:07:51.438Z,100925.88
2023-05-10T10:10:18.471Z,100928.66
2023-05-10T10:12:45.642Z,100938.47
2023-05-10T10:15:14.589Z,100928.31
2023-05-10T10:17:44.608Z,100938.47
2023-05-10T10:20:13.663Z,100931.47
2023-05-10T10:22:40.549Z,100939.53
2023-05-10T10:25:09.530Z,100929.75
2023-05-10T10:27:46.226Z,100929.59
2023-05-10T10:30:22.440Z,100937.28
2023-05-10T10:33:20.163Z,100930.84
2023-05-10T10:35:59.071Z,100934.81
2023-05-10T10:38:26.116Z,100932.09
2023-05-10T10:41:03.821Z,100931.78
2023-05-10T10:43:31.309Z,100935.47
2023-05-10T10:46:15.340Z,100937.22
2023-05-10T10:48:42.439Z,100938.88
2023-05-10T10:51:12.777Z,100929.94
2023-05-10T10:53:41.954Z,100933.63
2023-05-10T10:56:10.614Z,100937.25
2023-05-10T10:58:39.014Z,100926.69
2023-05-10T11:01:14.608Z,100924.25
2023-05-10T11:03:42.323Z,100933.09
2023-05-10T11:06:10.702Z,100922.66
2023-05-10T11:08:47.131Z,100929.16
2023-05-10T11:11:16.191Z,100931.59
2023-05-10T11:13:47.765Z,100925.50
2023-05-10T11:16:18.418Z,100924.28
2023-05-10T11:19:00.684Z,100932.25
2023-05-10T11:21:29.375Z,100927.28
2023-05-10T11:23:57.710Z,100930.44
2023-05-10T11:26:26.560Z,100930.47
2023-05-10T11:28:57.922Z,100938.50
2023-05-10T11:31:27.609Z,100929.72
2023-05-10T11:33:56.324Z,100937.97
2023-05-10T11:36:26.354Z,100929.78
2023-05-10T11:38:55.769Z,100933.94
2023-05-10T11:41:24.300Z,100931.56
2023-05-10T11:43:52.554Z,100932.94
2023-05-10T11:46:21.621Z,100935.63
2023-05-10T11:48:51.031Z,100934.41
2023-05-10T11:51:21.829Z,100938.03
2023-05-10T11:53:50.252Z,100934.03
2023-05-10T11:56:18.406Z,100938.47
2023-05-10T11:58:45.995Z,100927.81
2023-05-10T12:01:13.157Z,100935.22
2023-05-10T12:03:41.780Z,100927.94
2023-05-10T12:06:09.110Z,100925.88
2023-05-10T12:08:35.897Z,100925.50
2023-05-10T12:11:07.514Z,100922.25
2023-05-10T12:13:39.413Z,100926.28
2023-05-10T12:16:14.448Z,100931.72
2023-05-10T12:18:41.497Z,100940.75
2023-05-10T12:21:08.550Z,100946.47
2023-05-10T12:23:35.488Z,100938.31
2023-05-10T12:26:05.164Z,100934.06
2023-05-10T12:28:33.010Z,100939.84
2023-05-10T12:31:01.479Z,100945.28
2023-05-10T12:33:28.353Z,100946.78
2023-05-10T12:35:57.382Z,100953.69
2023-05-10T12:38:26.657Z,100946.13
2023-05-10T12:40:53.506Z,100959.25
2023-05-10T12:43:20.467Z,100957.31
2023-05-10T12:45:49.765Z,100964.06
2023-05-10T12:48:18.076Z,100961.59
2023-05-10T12:50:44.967Z,100959.84
2023-05-10T12:53:11.957Z,100962.59
2023-05-10T12:55:38.806Z,100963.22
2023-05-10T12:58:05.820Z,100967.94
2023-05-10T13:00:32.780Z,100961.84
2023-05-10T13:02:59.626Z,100966.41
2023-05-10T13:05:27.811Z,100967.97
2023-05-10T13:07:54.638Z,100963.53
2023-05-10T13:10:21.454Z,100968.38
2023-05-10T13:12:48.253Z,100969.91
2023-05-10T13:15:15.020Z,100970.19
2023-05-10T13:17:43.751Z,100968.41
2023-05-10T13:20:11.838Z,100975.88
2023-05-10T13:22:40.752Z,100970.63
2023-05-10T13:25:08.297Z,100973.75
2023-05-10T13:27:35.164Z,100972.69
2023-05-10T13:30:02.568Z,100982.94
2023-05-10T13:32:29.582Z,100985.53
2023-05-10T13:34:56.892Z,100976.63
2023-05-10T13:37:23.972Z,100984.25
2023-05-10T13:39:52.794Z,100991.25
2023-05-10T13:42:19.723Z,100989.78
2023-05-10T13:44:46.595Z,100998.97
2023-05-10T13:47:13.498Z,100996.34
2023-05-10T13:49:40.418Z,100991.41
2023-05-10T13:52:08.095Z,100995.06
2023-05-10T13:54:35.172Z,101000.66
2023-05-10T13:57:03.464Z,100988.19
2023-05-10T13:59:32.642Z,100997.41
2023-05-10T14:01:59.909Z,100988.13
2023-05-10T14:04:26.812Z,100992.78
2023-05-10T14:06:54.149Z,100986.06
2023-05-10T14:09:21.514Z,100994.16
2023-05-10T14:11:48.457Z,100998.56
2023-05-10T14:14:16.670Z,100986.00
2023-05-10T14:16:45.191Z,100996.63
2023-05-10T14:19:12.967Z,100991.03
2023-05-10T14:21:39.998Z,100996.75
2023-05-10T14:24:08.142Z,100999.28
2023-05-10T14:26:37.645Z,100993.47
2023-05-10T14:29:04.434Z,100995.63
2023-05-10T14:31:33.003Z,100999.66
2023-05-10T14:34:00.249Z,100986.16
2023-05-10T14:36:27.116Z,100994.66
2023-05-10T14:38:54.129Z,100990.44
2023-05-10T14:41:21.068Z,101001.97
2023-05-10T14:43:47.890Z,100998.03
2023-05-10T14:46:14.737Z,100997.41
2023-05-10T14:48:43.118Z,101004.13
2023-05-10T14:51:10.004Z,100996.31
2023-05-10T14:53:36.890Z,101003.50
2023-05-10T14:56:04.096Z,101007.50
2023-05-10T14:58:33.953Z,101001.63
2023-05-10T15:01:01.223Z,101001.16
2023-05-10T15:03:28.605Z,100999.72
2023-05-10T15:05:58.676Z,101004.69
2023-05-10T15:08:25.753Z,100998.28
2023-05-10T15:10:53.060Z,100996.72
2023-05-10T15:13:19.917Z,101011.56
2023-05-10T15:15:46.830Z,101001.66
2023-05-10T15:18:13.773Z,101005.06
2023-05-10T15:20:40.611Z,101004.94
2023-05-10T15:23:09.086Z,101003.59
2023-05-10T15:25:38.286Z,101010.84
2023-05-10T15:28:05.933Z,100999.22
2023-05-10T15:30:32.782Z,101005.28
2023-05-10T15:33:00.145Z,101009.56
2023-05-10T15:35:27.240Z,101014.94
2023-05-10T15:37:54.208Z,101007.75
2023-05-10T15:40:22.502Z,101014.44
2023-05-10T15:42:49.429Z,101019.47
2023-05-10T15:45:16.980Z,101012.94
2023-05-10T15:47:45.130Z,101020.19
2023-05-10T15:50:12.574Z,101016.19
2023-05-10T15:52:39.502Z,101022.94
2023-05-10T15:55:12.964Z,101024.59
2023-05-10T15:57:42.527Z,101030.31
2023-05-10T16:00:11.013Z,101031.16
2023-05-10T16:02:38.043Z,101031.69
2023-05-10T16:05:05.714Z,101029.63
2023-05-10T16:07:32.811Z,101030.84
2023-05-10T16:09:59.782Z,101022.16
2023-05-10T16:12:26.722Z,101021.81
2023-05-10T16:14:54.964Z,101024.31
2023-05-10T16:17:21.837Z,101031.13
2023-05-10T16:19:48.788Z,101030.75
2023-05-10T16:22:15.987Z,101031.88
2023-05-10T16:24:42.828Z,101040.53
2023-05-10T16:27:09.914Z,101034.84
2023-05-10T16:29:36.918Z,101039.25
2023-05-10T16:32:05.928Z,101035.38
2023-05-10T16:34:32.751Z,101031.97
2023-05-10T16:36:59.657Z,101032.03
2023-05-10T16:39:26.506Z,101036.94
2023-05-10T16:41:53.290Z,101037.69
2023-05-10T16:44:21.060Z,101039.47
2023-05-10T16:46:49.027Z,101036.22
2023-05-10T16:49:17.681Z,101033.78
2023-05-10T16:51:44.535Z,101032.69
2023-05-10T16:54:11.406Z,101038.03
2023-05-10T16:56:38.563Z,101037.09
2023-05-10T16:59:05.892Z,101037.13
2023-05-10T17:01:33.942Z,101041.81
2023-05-10T17:04:00.908Z,101042.22
2023-05-10T17:06:29.207Z,101035.44
2023-05-10T17:08:56.228Z,101043.81
2023-05-10T17:11:23.023Z,101046.81
2023-05-10T17:13:50.043Z,101054.44
2023-05-10T17:16:17.260Z,101046.72
2023-05-10T17:18:45.878Z,101051.63
2023-05-10T17:21:12.944Z,101043.44
2023-05-10T17:23:41.274Z,101054.34
2023-05-10T17:26:08.442Z,101047.31
2023-05-10T17:28:35.678Z,101054.16
2023-05-10T17:31:02.884Z,101043.38
2023-05-10T17:33:29.727Z,101044.19
2023-05-10T17:35:57.019Z,101049.00
2023-05-10T17:38:23.921Z,101049.09
2023-05-10T17:40:52.871Z,101054.41
2023-05-10T17:43:20.425Z,101056.81
2023-05-10T17:45:48.064Z,101044.31
2023-05-10T17:48:14.975Z,101043.50
2023-05-10T17:50:42.314Z,101053.22
2023-05-10T17:53:09.198Z,101049.53
2023-05-10T17:55:36.224Z,101051.59
2023-05-10T17:58:04.381Z,101058.03
2023-05-10T18:00:31.307Z,101060.09
2023-05-10T18:02:58.128Z,101054.41
2023-05-10T18:05:25.074Z,101055.25
2023-05-10T18:07:51.955Z,101056.78
2023-05-10T18:10:19.046Z,101059.94
2023-05-10T18:15:14.033Z,101053.56
2023-05-10T18:17:40.960Z,101045.41
2023-05-10T18:20:09.193Z,101049.81
2023-05-10T18:22:36.128Z,101049.81
2023-05-10T18:25:02.980Z,101044.47
2023-05-10T18:27:29.964Z,101048.91
2023-05-10T18:29:57.020Z,101046.00
2023-05-10T18:32:25.511Z,101044.34
2023-05-10T18:34:54.472Z,101042.25
2023-05-10T18:37:22.600Z,101036.19
2023-05-10T18:39:50.025Z,101043.38
2023-05-10T18:42:16.916Z,101033.97
2023-05-10T18:44:43.838Z,101035.13
2023-05-10T18:47:10.719Z,101036.59
2023-05-10T18:49:39.744Z,101041.38
2023-05-10T18:52:06.604Z,101046.97
2023-05-10T18:54:33.412Z,101052.13
2023-05-10T18:57:00.319Z,101051.91
2023-05-10T18:59:27.987Z,101052.69
2023-05-10T19:01:56.499Z,101054.16
2023-05-10T19:04:24.457Z,101067.50
2023-05-10T19:06:53.168Z,101065.00
2023-05-10T19:09:21.110Z,101068.09
2023-05-10T19:11:48.491Z,101063.16
2023-05-10T19:14:15.677Z,101073.59
2023-05-10T19:16:43.076Z,101073.88
2023-05-10T19:19:10.600Z,101081.28
2023-05-10T19:21:39.051Z,101084.88
2023-05-10T19:24:08.065Z,101091.16
2023-05-10T19:26:36.414Z,101090.09
2023-05-10T19:29:04.147Z,101093.69
2023-05-10T19:31:31.280Z,101098.44
2023-05-10T19:34:00.665Z,101096.28
2023-05-10T19:36:27.813Z,101105.97
2023-05-10T19:38:54.898Z,101105.53
2023-05-10T19:41:23.106Z,101109.88
2023-05-10T19:43:49.990Z,101115.50
2023-05-10T19:46:17.921Z,101112.63
2023-05-10T19:48:48.802Z,101118.16
2023-05-10T19:51:17.090Z,101115.34
2023-05-10T19:53:44.987Z,101115.69
2023-05-10T19:56:14.274Z,101125.41
2023-05-10T19:58:43.118Z,101133.13
2023-05-10T20:01:09.985Z,101128.59
2023-05-10T20:03:36.948Z,101131.50
2023-05-10T20:06:04.336Z,101139.59
2023-05-10T20:08:31.518Z,101138.84
2023-05-10T20:11:00.637Z,101137.56
2023-05-10T20:13:27.561Z,101134.38
2023-05-10T20:15:57.127Z,101139.28
2023-05-10T20:18:24.616Z,101126.53
2023-05-10T20:20:54.373Z,101135.44
2023-05-10T20:23:21.250Z,101133.72
2023-05-10T20:25:48.292Z,101138.50
2023-05-10T20:28:15.928Z,101137.69
2023-05-10T20:30:42.824Z,101132.81
2023-05-10T20:33:11.107Z,101129.09
2023-05-10T20:35:37.993Z,101129.72
2023-05-10T20:38:04.859Z,101134.31
2023-05-10T20:40:32.052Z,101137.28
2023-05-10T20:42:58.897Z,101130.63
2023-05-10T20:45:26.081Z,101133.06
2023-05-10T20:47:53.775Z,101131.06
2023-05-10T20:50:22.304Z,101133.00
2023-05-10T20:52:52.315Z,101128.56
2023-05-10T20:55:19.275Z,101135.22
2023-05-10T20:57:47.121Z,101133.44
2023-05-10T21:00:14.897Z,101123.34
2023-05-10T21:02:43.710Z,101125.09
2023-05-10T21:05:10.737Z,101126.28
2023-05-10T21:07:39.479Z,101124.81
2023-05-10T21:10:08.201Z,101126.66
2023-05-10T21:12:35.133Z,101119.75
2023-05-10T21:15:03.067Z,101119.97
2023-05-10T21:17:29.888Z,101121.78
2023-05-10T21:19:56.900Z,101120.91
2023-05-10T21:22:23.740Z,101123.28
2023-05-10T21:24:52.079Z,101121.78
2023-05-10T21:27:18.952Z,101113.28
2023-05-10T21:29:45.897Z,101114.53
2023-05-10T21:32:12.807Z,101120.09
2023-05-10T21:34:39.703Z,101120.09
2023-05-10T21:37:06.757Z,101117.63
2023-05-10T21:39:33.621Z,101116.81
2023-05-10T21:42:03.514Z,101112.00
2023-05-10T21:44:31.801Z,101114.81
2023-05-10T21:46:58.711Z,101114.53
2023-05-10T21:49:26.347Z,101119.25
2023-05-10T21:51:53.284Z,101119.66
2023-05-10T21:54:20.219Z,101119.19
2023-05-10T21:56:47.267Z,101117.09
2023-05-10T21:59:15.573Z,101118.22
2023-05-10T22:01:43.805Z,101116.41
2023-05-10T22:04:10.908Z,101115.50
2023-05-10T22:06:37.762Z,101114.34
2023-05-10T22:09:05.119Z,101112.06
2023-05-10T22:11:31.995Z,101121.84
2023-05-10T22:13:59.093Z,101119.03
2023-05-10T22:16:27.394Z,101116.59
2023-05-10T22:18:54.608Z,101122.50
2023-05-10T22:21:21.700Z,101112.53
2023-05-10T22:23:48.675Z,101118.50
2023-05-10T22:26:15.583Z,101118.44
2023-05-10T22:28:42.469Z,101114.72
2023-05-10T22:31:10.552Z,101119.72
2023-05-10T22:33:38.821Z,101120.53
2023-05-10T22:36:06.790Z,101115.97
2023-05-10T22:38:33.641Z,101114.81
2023-05-10T22:41:00.709Z,101118.78
2023-05-10T22:43:27.554Z,101113.34
2023-05-10T22:45:54.468Z,101126.59
2023-05-10T22:48:22.083Z,101125.06
2023-05-10T22:50:50.443Z,101122.72
2023-05-10T22:53:17.231Z,101131.88
2023-05-10T22:55:44.156Z,101135.03
2023-05-10T22:58:11.307Z,101125.63
2023-05-10T23:00:38.355Z,101133.94
2023-05-10T23:03:05.495Z,101135.03
2023-05-10T23:05:32.504Z,101142.19
2023-05-10T23:08:00.988Z,101143.09
2023-05-10T23:10:27.898Z,101138.28
2023-05-10T23:12:56.027Z,101136.41
2023-05-10T23:15:23.012Z,101129.59
2023-05-10T23:17:49.935Z,101135.84
2023-05-10T23:20:17.139Z,101131.78
2023-05-10T23:22:45.010Z,101131.91
2023-05-10T23:25:13.200Z,101135.91
2023-05-10T23:27:40.098Z,101131.81
2023-05-10T23:30:08.286Z,101133.69
2023-05-10T23:32:35.123Z,101132.06
2023-05-10T23:35:01.990Z,101128.69
2023-05-10T23:37:29.071Z,101131.53
2023-05-10T23:39:55.967Z,101128.16
2023-05-10T23:42:24.168Z,101124.06
2023-05-10T23:44:51.137Z,101135.31
2023-05-10T23:47:18.159Z,101132.06
2023-05-10T23:49:45.107Z,101132.06
2023-05-10T23:52:12.003Z,101127.50
2023-05-10T23:54:39.221Z,101134.88
2023-05-10T23:57:06.221Z,101116.25
2023-05-10T23:59:34.444Z,101135.59
